createdAt,value
2023-04-19T00:00:52.747Z,505.00
2023-04-19T00:01:52.747Z,506.00
2023-04-19T00:02:52.886Z,506.00
2023-04-19T00:03:53.027Z,504.00
2023-04-19T00:04:52.970Z,504.00
2023-04-19T00:05:52.722Z,499.00
2023-04-19T00:06:52.699Z,499.00
2023-04-19T00:07:52.698Z,502.00
2023-04-19T00:08:52.694Z,500.00
2023-04-19T00:09:52.696Z,500.00
2023-04-19T00:10:52.704Z,502.00
2023-04-19T00:11:52.695Z,503.00
2023-04-19T00:12:52.667Z,505.00
2023-04-19T00:13:52.690Z,502.00
2023-04-19T00:14:52.686Z,499.00
2023-04-19T00:15:52.683Z,497.00
2023-04-19T00:16:52.718Z,499.00
2023-04-19T00:17:52.664Z,500.00
2023-04-19T00:18:52.692Z,503.00
2023-04-19T00:19:52.703Z,503.00
2023-04-19T00:20:52.740Z,503.00
2023-04-19T00:21:52.785Z,502.00
2023-04-19T00:22:52.833Z,502.00
2023-04-19T00:23:52.861Z,500.00
2023-04-19T00:24:52.914Z,501.00
2023-04-19T00:25:52.959Z,503.00
2023-04-19T00:26:53.004Z,500.00
2023-04-19T00:27:53.027Z,498.00
2023-04-19T00:28:53.091Z,501.00
2023-04-19T00:29:53.132Z,497.00
2023-04-19T00:30:53.230Z,500.00
2023-04-19T00:31:53.236Z,501.00
2023-04-19T00:32:53.301Z,498.00
2023-04-19T00:33:53.303Z,501.00
2023-04-19T00:34:53.332Z,503.00
2023-04-19T00:35:53.363Z,504.00
2023-04-19T00:36:53.397Z,502.00
2023-04-19T00:37:53.450Z,501.00
2023-04-19T00:38:53.489Z,501.00
2023-04-19T00:39:53.524Z,498.00
2023-04-19T00:40:53.555Z,499.00
2023-04-19T00:41:53.605Z,497.00
2023-04-19T00:42:53.672Z,498.00
2023-04-19T00:43:53.693Z,502.00
2023-04-19T00:44:53.750Z,503.00
2023-04-19T00:45:53.850Z,499.00
2023-04-19T00:46:53.802Z,501.00
2023-04-19T00:47:53.900Z,500.00
2023-04-19T00:48:53.887Z,499.00
2023-04-19T00:49:53.939Z,501.00
2023-04-19T00:50:53.976Z,500.00
2023-04-19T00:51:54.026Z,502.00
2023-04-19T00:52:54.067Z,502.00
2023-04-19T00:53:54.103Z,505.00
2023-04-19T00:54:54.157Z,503.00
2023-04-19T00:55:54.135Z,502.00
2023-04-19T00:56:54.132Z,500.00
2023-04-19T00:57:54.129Z,498.00
2023-04-19T00:58:54.126Z,497.00
2023-04-19T00:59:54.135Z,494.00
2023-04-19T01:00:54.100Z,492.00
2023-04-19T01:01:54.130Z,491.00
2023-04-19T01:02:54.262Z,494.00
2023-04-19T01:03:54.131Z,494.00
2023-04-19T01:04:54.091Z,494.00
2023-04-19T01:05:54.072Z,492.00
2023-04-19T01:06:54.066Z,490.00
2023-04-19T01:07:54.054Z,490.00
2023-04-19T01:08:54.109Z,492.00
2023-04-19T01:09:54.153Z,492.00
2023-04-19T01:10:54.194Z,494.00
2023-04-19T01:11:54.255Z,494.00
2023-04-19T01:12:54.288Z,492.00
2023-04-19T01:13:54.344Z,491.00
2023-04-19T01:14:54.392Z,492.00
2023-04-19T01:15:54.476Z,491.00
2023-04-19T01:16:54.506Z,495.00
2023-04-19T01:17:54.556Z,495.00
2023-04-19T01:18:54.587Z,492.00
2023-04-19T01:19:54.630Z,492.00
2023-04-19T01:20:54.673Z,494.00
2023-04-19T01:21:54.726Z,488.00
2023-04-19T01:22:54.777Z,486.00
2023-04-19T01:23:54.831Z,490.00
2023-04-19T01:24:54.873Z,492.00
2023-04-19T01:25:54.917Z,493.00
2023-04-19T01:26:54.968Z,492.00
2023-04-19T01:27:55.027Z,494.00
2023-04-19T01:28:55.059Z,492.00
2023-04-19T01:29:55.136Z,490.00
2023-04-19T01:30:55.248Z,484.00
2023-04-19T01:31:55.214Z,489.00
2023-04-19T01:32:55.300Z,487.00
2023-04-19T01:33:55.325Z,488.00
2023-04-19T01:34:55.379Z,489.00
2023-04-19T01:35:55.437Z,490.00
2023-04-19T01:36:55.498Z,493.00
2023-04-19T01:37:55.549Z,492.00
2023-04-19T01:38:55.518Z,491.00
2023-04-19T01:39:55.516Z,491.00
2023-04-19T01:40:55.496Z,492.00
2023-04-19T01:41:55.512Z,494.00
2023-04-19T01:42:55.489Z,494.00
2023-04-19T01:43:55.478Z,493.00
2023-04-19T01:44:55.471Z,492.00
2023-04-19T01:45:55.471Z,492.00
2023-04-19T01:46:55.496Z,491.00
2023-04-19T01:47:55.535Z,491.00
2023-04-19T01:48:55.575Z,489.00
2023-04-19T01:49:55.641Z,488.00
2023-04-19T01:50:55.690Z,487.00
2023-04-19T01:51:55.739Z,486.00
2023-04-19T01:52:55.782Z,485.00
2023-04-19T01:53:55.842Z,486.00
2023-04-19T01:54:55.887Z,483.00
2023-04-19T01:55:55.948Z,483.00
2023-04-19T01:56:56.001Z,481.00
2023-04-19T01:57:56.072Z,483.00
2023-04-19T01:58:56.106Z,484.00
2023-04-19T01:59:56.181Z,484.00
2023-04-19T02:00:56.279Z,486.00
2023-04-19T02:01:56.338Z,486.00
2023-04-19T02:02:56.410Z,488.00
2023-04-19T02:03:56.481Z,482.00
2023-04-19T02:04:56.458Z,481.00
2023-04-19T02:05:56.506Z,483.00
2023-04-19T02:06:56.562Z,484.00
2023-04-19T02:07:56.636Z,487.00
2023-04-19T02:08:56.667Z,484.00
2023-04-19T02:09:56.747Z,487.00
2023-04-19T02:10:56.791Z,485.00
2023-04-19T02:11:56.847Z,486.00
2023-04-19T02:12:56.915Z,486.00
2023-04-19T02:13:56.986Z,483.00
2023-04-19T02:14:57.037Z,483.00
2023-04-19T02:15:57.025Z,485.00
2023-04-19T02:16:57.054Z,485.00
2023-04-19T02:17:57.032Z,482.00
2023-04-19T02:18:56.984Z,482.00
2023-04-19T02:19:56.995Z,482.00
2023-04-19T02:20:56.994Z,479.00
2023-04-19T02:21:56.962Z,477.00
2023-04-19T02:22:56.937Z,475.00
2023-04-19T02:23:56.995Z,475.00
2023-04-19T02:24:56.996Z,472.00
2023-04-19T02:25:56.980Z,474.00
2023-04-19T02:26:56.973Z,475.00
2023-04-19T02:27:56.997Z,479.00
2023-04-19T02:28:56.946Z,482.00
2023-04-19T02:29:56.946Z,479.00
2023-04-19T02:30:56.939Z,481.00
2023-04-19T02:31:56.947Z,484.00
2023-04-19T02:32:57.006Z,484.00
2023-04-19T02:33:57.012Z,483.00
2023-04-19T02:34:57.073Z,484.00
2023-04-19T02:35:57.131Z,484.00
2023-04-19T02:36:57.118Z,483.00
2023-04-19T02:37:57.125Z,483.00
2023-04-19T02:38:57.102Z,482.00
2023-04-19T02:39:57.102Z,480.00
2023-04-19T02:40:57.095Z,479.00
2023-04-19T02:41:57.083Z,478.00
2023-04-19T02:42:57.075Z,482.00
2023-04-19T02:43:57.068Z,483.00
2023-04-19T02:44:57.059Z,481.00
2023-04-19T02:45:57.118Z,481.00
2023-04-19T02:46:57.163Z,480.00
2023-04-19T02:47:57.418Z,479.00
2023-04-19T02:48:57.210Z,476.00
2023-04-19T02:49:57.210Z,475.00
2023-04-19T02:50:57.186Z,476.00
2023-04-19T02:51:57.182Z,475.00
2023-04-19T02:52:57.168Z,474.00
2023-04-19T02:53:57.151Z,478.00
2023-04-19T02:54:57.155Z,479.00
2023-04-19T02:55:57.126Z,481.00
2023-04-19T02:56:57.121Z,482.00
2023-04-19T02:57:57.132Z,481.00
2023-04-19T02:58:57.098Z,480.00
2023-04-19T02:59:57.100Z,475.00
2023-04-19T03:00:57.139Z,475.00
2023-04-19T03:01:57.105Z,466.00
2023-04-19T03:02:57.222Z,461.00
2023-04-19T03:03:57.149Z,456.00
2023-04-19T03:04:57.069Z,452.00
2023-04-19T03:05:57.065Z,449.00
2023-04-19T03:06:57.064Z,449.00
2023-04-19T03:07:57.073Z,447.00
2023-04-19T03:08:57.069Z,443.00
2023-04-19T03:09:57.088Z,440.00
2023-04-19T03:10:57.120Z,435.00
2023-04-19T03:11:57.123Z,438.00
2023-04-19T03:12:57.166Z,434.00
2023-04-19T03:13:57.190Z,432.00
2023-04-19T03:14:57.251Z,430.00
2023-04-19T03:15:57.366Z,426.00
2023-04-19T03:16:57.285Z,421.00
2023-04-19T03:17:57.294Z,421.00
2023-04-19T03:18:57.268Z,417.00
2023-04-19T03:19:57.260Z,413.00
2023-04-19T03:20:57.266Z,415.00
2023-04-19T03:21:57.250Z,411.00
2023-04-19T03:22:57.242Z,415.00
2023-04-19T03:23:57.268Z,414.00
2023-04-19T03:24:57.245Z,411.00
2023-04-19T03:25:57.266Z,410.00
2023-04-19T03:26:57.343Z,410.00
2023-04-19T03:27:57.394Z,410.00
2023-04-19T03:28:57.440Z,409.00
2023-04-19T03:29:57.517Z,410.00
2023-04-19T03:30:57.571Z,408.00
2023-04-19T03:31:57.611Z,410.00
2023-04-19T03:32:57.684Z,411.00
2023-04-19T03:33:57.723Z,413.00
2023-04-19T03:34:57.830Z,412.00
2023-04-19T03:35:57.853Z,413.00
2023-04-19T03:36:57.886Z,411.00
2023-04-19T03:37:57.906Z,410.00
2023-04-19T03:38:57.953Z,408.00
2023-04-19T03:39:58.010Z,405.00
2023-04-19T03:40:58.038Z,403.00
2023-04-19T03:41:58.107Z,405.00
2023-04-19T03:42:58.167Z,404.00
2023-04-19T03:43:58.208Z,406.00
2023-04-19T03:44:58.220Z,406.00
2023-04-19T03:45:58.272Z,405.00
2023-04-19T03:46:58.259Z,400.00
2023-04-19T03:47:59.135Z,401.00
2023-04-19T03:48:58.248Z,401.00
2023-04-19T03:49:58.254Z,401.00
2023-04-19T03:50:58.253Z,402.00
2023-04-19T03:51:58.254Z,400.00
2023-04-19T03:52:58.256Z,398.00
2023-04-19T03:53:58.263Z,397.00
2023-04-19T03:54:58.270Z,393.00
2023-04-19T03:55:58.264Z,392.00
2023-04-19T03:56:58.273Z,394.00
2023-04-19T03:57:58.269Z,395.00
2023-04-19T03:58:58.277Z,395.00
2023-04-19T03:59:58.303Z,393.00
2023-04-19T04:00:58.298Z,395.00
2023-04-19T04:01:58.363Z,396.00
2023-04-19T04:02:58.604Z,394.00
2023-04-19T04:03:58.520Z,391.00
2023-04-19T04:04:58.437Z,391.00
2023-04-19T04:05:58.342Z,390.00
2023-04-19T04:06:58.341Z,393.00
2023-04-19T04:07:58.351Z,390.00
2023-04-19T04:08:58.345Z,389.00
2023-04-19T04:09:58.344Z,391.00
2023-04-19T04:10:58.351Z,391.00
2023-04-19T04:11:58.360Z,394.00
2023-04-19T04:12:58.353Z,392.00
2023-04-19T04:13:58.351Z,391.00
2023-04-19T04:14:58.353Z,392.00
2023-04-19T04:15:58.349Z,393.00
2023-04-19T04:16:58.363Z,393.00
2023-04-19T04:17:58.427Z,391.00
2023-04-19T04:18:58.363Z,394.00
2023-04-19T04:19:58.362Z,390.00
2023-04-19T04:20:58.374Z,390.00
2023-04-19T04:21:58.375Z,391.00
2023-04-19T04:22:58.364Z,388.00
2023-04-19T04:23:58.371Z,389.00
2023-04-19T04:24:58.371Z,388.00
2023-04-19T04:25:58.371Z,389.00
2023-04-19T04:26:58.376Z,393.00
2023-04-19T04:27:58.376Z,395.00
2023-04-19T04:28:58.385Z,396.00
2023-04-19T04:29:58.386Z,400.00
2023-04-19T04:30:58.371Z,400.00
2023-04-19T04:31:58.455Z,398.00
2023-04-19T04:32:58.430Z,396.00
2023-04-19T04:33:58.367Z,398.00
2023-04-19T04:34:58.502Z,398.00
2023-04-19T04:35:58.373Z,398.00
2023-04-19T04:36:58.370Z,400.00
2023-04-19T04:37:58.370Z,400.00
2023-04-19T04:38:58.374Z,398.00
2023-04-19T04:39:58.408Z,400.00
2023-04-19T04:40:58.459Z,399.00
2023-04-19T04:41:58.521Z,399.00
2023-04-19T04:42:58.554Z,398.00
2023-04-19T04:44:11.295Z,400.00
2023-04-19T04:44:59.616Z,401.00
2023-04-19T04:45:58.648Z,399.00
2023-04-19T04:46:58.600Z,399.00
2023-04-19T04:47:58.615Z,402.00
2023-04-19T04:48:58.603Z,404.00
2023-04-19T04:49:58.604Z,406.00
2023-04-19T04:50:58.622Z,404.00
2023-04-19T04:51:58.605Z,404.00
2023-04-19T04:52:58.594Z,402.00
2023-04-19T04:53:58.602Z,401.00
2023-04-19T04:54:58.603Z,400.00
2023-04-19T04:55:58.654Z,401.00
2023-04-19T04:56:58.786Z,401.00
2023-04-19T04:57:58.774Z,399.00
2023-04-19T04:58:58.787Z,398.00
2023-04-19T04:59:58.798Z,397.00
2023-04-19T05:00:58.835Z,396.00
2023-04-19T05:01:58.850Z,394.00
2023-04-19T05:02:58.894Z,393.00
2023-04-19T05:03:58.880Z,396.00
2023-04-19T05:04:58.808Z,399.00
2023-04-19T05:05:58.789Z,401.00
2023-04-19T05:06:58.893Z,400.00
2023-04-19T05:07:58.803Z,400.00
2023-04-19T05:08:58.807Z,396.00
2023-04-19T05:09:58.806Z,398.00
2023-04-19T05:10:58.821Z,394.00
2023-04-19T05:11:58.814Z,395.00
2023-04-19T05:12:58.815Z,392.00
2023-04-19T05:13:58.816Z,391.00
2023-04-19T05:14:58.814Z,393.00
2023-04-19T05:15:58.865Z,396.00
2023-04-19T05:16:58.820Z,395.00
2023-04-19T05:17:58.874Z,393.00
2023-04-19T05:18:58.832Z,392.00
2023-04-19T05:19:58.832Z,395.00
2023-04-19T05:20:58.833Z,397.00
2023-04-19T05:21:58.851Z,398.00
2023-04-19T05:22:58.908Z,397.00
2023-04-19T05:23:58.828Z,396.00
2023-04-19T05:24:58.832Z,395.00
2023-04-19T05:25:58.824Z,392.00
2023-04-19T05:26:58.816Z,391.00
2023-04-19T05:27:58.848Z,390.00
2023-04-19T05:28:58.823Z,389.00
2023-04-19T05:29:58.844Z,429.00
2023-04-19T05:30:58.861Z,424.00
2023-04-19T05:31:58.838Z,422.00
2023-04-19T05:32:58.903Z,461.00
2023-04-19T05:33:58.820Z,506.00
2023-04-19T05:34:58.835Z,521.00
2023-04-19T05:35:58.866Z,536.00
2023-04-19T05:36:58.873Z,549.00
2023-04-19T05:37:58.855Z,557.00
2023-04-19T05:38:58.997Z,561.00
2023-04-19T05:39:58.977Z,563.00
2023-04-19T05:40:59.054Z,570.00
2023-04-19T05:41:59.085Z,750.00
2023-04-19T05:42:59.182Z,641.00
2023-04-19T05:43:59.210Z,639.00
2023-04-19T05:44:59.257Z,647.00
2023-04-19T05:45:59.359Z,575.00
2023-04-19T05:46:59.335Z,488.00
2023-04-19T05:47:59.322Z,473.00
2023-04-19T05:48:59.314Z,445.00
2023-04-19T05:49:59.344Z,476.00
2023-04-19T05:50:59.329Z,473.00
2023-04-19T05:51:59.320Z,465.00
2023-04-19T05:52:59.328Z,472.00
2023-04-19T05:53:59.337Z,485.00
2023-04-19T05:54:59.365Z,520.00
2023-04-19T05:55:59.369Z,525.00
2023-04-19T05:56:59.382Z,517.00
2023-04-19T05:57:59.372Z,507.00
2023-04-19T05:58:59.392Z,506.00
2023-04-19T06:00:59.448Z,503.00
2023-04-19T06:01:59.485Z,499.00
2023-04-19T06:02:59.452Z,491.00
2023-04-19T06:03:59.518Z,480.00
2023-04-19T06:05:02.505Z,483.00
2023-04-19T06:06:00.563Z,475.00
2023-04-19T06:06:59.446Z,465.00
2023-04-19T06:08:59.470Z,468.00
2023-04-19T06:09:59.459Z,468.00
2023-04-19T06:11:02.600Z,469.00
2023-04-19T06:12:00.455Z,475.00
2023-04-19T06:12:59.463Z,473.00
2023-04-19T06:13:59.468Z,469.00
2023-04-19T06:14:59.466Z,466.00
2023-04-19T06:15:59.529Z,476.00
2023-04-19T06:16:59.473Z,505.00
2023-04-19T06:17:59.976Z,509.00
2023-04-19T06:18:59.476Z,509.00
2023-04-19T06:19:59.476Z,508.00
2023-04-19T06:20:59.478Z,509.00
2023-04-19T06:21:59.482Z,508.00
2023-04-19T06:22:59.480Z,512.00
2023-04-19T06:23:59.490Z,499.00
2023-04-19T06:24:59.506Z,504.00
2023-04-19T06:25:59.505Z,537.00
2023-04-19T06:26:59.507Z,549.00
2023-04-19T06:27:59.497Z,546.00
2023-04-19T06:28:59.504Z,538.00
2023-04-19T06:29:59.526Z,536.00
2023-04-19T06:30:59.511Z,537.00
2023-04-19T06:31:59.563Z,541.00
2023-04-19T06:32:59.562Z,573.00
2023-04-19T06:33:59.530Z,595.00
2023-04-19T06:34:59.509Z,602.00
2023-04-19T06:35:59.517Z,612.00
2023-04-19T06:36:59.507Z,629.00
2023-04-19T06:37:59.516Z,685.00
2023-04-19T06:38:59.595Z,712.00
2023-04-19T06:39:59.640Z,718.00
2023-04-19T06:40:59.675Z,704.00
2023-04-19T06:41:59.718Z,688.00
2023-04-19T06:42:59.790Z,672.00
2023-04-19T06:43:59.818Z,736.00
2023-04-19T06:44:59.898Z,700.00
2023-04-19T06:45:59.923Z,687.00
2023-04-19T06:46:59.979Z,701.00
2023-04-19T06:48:00.016Z,728.00
2023-04-19T06:49:00.017Z,771.00
2023-04-19T06:50:00.049Z,780.00
2023-04-19T06:51:00.073Z,815.00
2023-04-19T06:52:00.071Z,823.00
2023-04-19T06:53:00.119Z,844.00
2023-04-19T06:54:00.123Z,848.00
2023-04-19T06:55:00.172Z,864.00
2023-04-19T06:56:00.149Z,871.00
2023-04-19T06:57:00.198Z,823.00
2023-04-19T06:58:00.230Z,806.00
2023-04-19T06:59:00.255Z,793.00
2023-04-19T07:00:00.250Z,789.00
2023-04-19T07:01:00.308Z,761.00
2023-04-19T07:02:00.315Z,741.00
2023-04-19T07:03:00.467Z,678.00
2023-04-19T07:04:00.388Z,682.00
2023-04-19T07:05:00.293Z,678.00
2023-04-19T07:06:00.298Z,666.00
2023-04-19T07:07:00.330Z,639.00
2023-04-19T07:08:00.349Z,639.00
2023-04-19T07:09:00.456Z,619.00
2023-04-19T07:10:00.435Z,616.00
2023-04-19T07:11:00.456Z,609.00
2023-04-19T07:12:00.442Z,609.00
2023-04-19T07:13:00.450Z,611.00
2023-04-19T07:14:00.485Z,609.00
2023-04-19T07:15:00.639Z,603.00
2023-04-19T07:16:00.544Z,597.00
2023-04-19T07:17:00.460Z,593.00
2023-04-19T07:18:00.487Z,590.00
2023-04-19T07:19:00.478Z,597.00
2023-04-19T07:20:00.468Z,633.00
2023-04-19T07:21:00.495Z,632.00
2023-04-19T07:22:00.485Z,622.00
2023-04-19T07:23:00.487Z,629.00
2023-04-19T07:24:00.476Z,633.00
2023-04-19T07:25:00.500Z,635.00
2023-04-19T07:26:00.478Z,633.00
2023-04-19T07:27:00.522Z,638.00
2023-04-19T07:28:00.469Z,620.00
2023-04-19T07:29:00.501Z,636.00
2023-04-19T07:30:00.478Z,634.00
2023-04-19T07:31:00.493Z,629.00
2023-04-19T07:32:00.524Z,628.00
2023-04-19T07:33:00.571Z,621.00
2023-04-19T07:34:00.494Z,627.00
2023-04-19T07:35:00.721Z,625.00
2023-04-19T07:36:00.469Z,646.00
2023-04-19T07:37:00.463Z,627.00
2023-04-19T07:38:00.471Z,651.00
2023-04-19T07:39:00.475Z,654.00
2023-04-19T07:40:00.516Z,659.00
2023-04-19T07:41:00.558Z,665.00
2023-04-19T07:42:00.558Z,691.00
2023-04-19T07:43:00.576Z,740.00
2023-04-19T07:44:00.600Z,758.00
2023-04-19T07:45:00.635Z,798.00
2023-04-19T07:46:00.724Z,808.00
2023-04-19T07:47:00.876Z,811.00
2023-04-19T07:48:00.725Z,844.00
2023-04-19T07:49:00.662Z,891.00
2023-04-19T07:50:00.691Z,904.00
2023-04-19T07:51:00.721Z,912.00
2023-04-19T07:52:00.733Z,924.00
2023-04-19T07:53:00.797Z,982.00
2023-04-19T07:54:00.866Z,969.00
2023-04-19T07:55:00.906Z,957.00
2023-04-19T07:56:00.968Z,953.00
2023-04-19T07:57:01.090Z,953.00
2023-04-19T07:58:01.090Z,958.00
2023-04-19T07:59:08.447Z,957.00
2023-04-19T08:00:02.105Z,950.00
2023-04-19T08:01:01.142Z,913.00
2023-04-19T08:02:01.190Z,893.00
2023-04-19T08:03:01.251Z,875.00
2023-04-19T08:04:01.539Z,831.00
2023-04-19T08:05:01.270Z,720.00
2023-04-19T08:06:01.064Z,732.00
2023-04-19T08:07:01.074Z,745.00
2023-04-19T08:08:01.055Z,746.00
2023-04-19T08:09:01.065Z,741.00
2023-04-19T08:10:01.089Z,731.00
2023-04-19T08:11:02.085Z,714.00
2023-04-19T08:12:01.011Z,691.00
2023-04-19T08:13:05.041Z,679.00
2023-04-19T08:15:07.745Z,673.00
2023-04-19T08:16:18.044Z,693.00
2023-04-19T08:18:00.998Z,723.00
2023-04-19T08:19:01.001Z,754.00
2023-04-19T08:20:00.955Z,782.00
2023-04-19T08:21:00.944Z,783.00
2023-04-19T08:22:00.971Z,771.00
2023-04-19T08:23:07.558Z,727.00
2023-04-19T08:24:01.943Z,727.00
2023-04-19T08:25:00.930Z,732.00
2023-04-19T08:26:00.922Z,738.00
2023-04-19T08:27:00.911Z,741.00
2023-04-19T08:28:00.907Z,745.00
2023-04-19T08:29:00.898Z,771.00
2023-04-19T08:30:00.897Z,781.00
2023-04-19T08:31:00.930Z,795.00
2023-04-19T08:32:00.987Z,783.00
2023-04-19T08:33:00.966Z,746.00
2023-04-19T08:34:00.854Z,684.00
2023-04-19T08:35:00.868Z,667.00
2023-04-19T08:36:00.844Z,600.00
2023-04-19T08:37:04.357Z,584.00
2023-04-19T08:38:02.058Z,576.00
2023-04-19T08:39:05.737Z,542.00
2023-04-19T08:40:01.824Z,523.00
2023-04-19T08:41:00.806Z,525.00
2023-04-19T08:42:06.961Z,513.00
2023-04-19T08:43:01.792Z,507.00
2023-04-19T08:44:00.791Z,501.00
2023-04-19T08:46:00.872Z,476.00
2023-04-19T08:47:00.762Z,562.00
2023-04-19T08:48:02.043Z,602.00
2023-04-19T08:49:00.738Z,628.00
2023-04-19T08:50:13.960Z,631.00
2023-04-19T08:51:05.607Z,614.00
2023-04-19T08:52:00.734Z,613.00
2023-04-19T08:53:08.537Z,664.00
2023-04-19T08:54:01.789Z,699.00
2023-04-19T08:55:00.713Z,698.00
2023-04-19T08:56:10.596Z,777.00
2023-04-19T08:57:01.712Z,790.00
2023-04-19T08:58:00.693Z,802.00
2023-04-19T08:59:11.580Z,818.00
2023-04-19T09:00:01.720Z,828.00
2023-04-19T09:01:00.742Z,838.00
2023-04-19T09:02:00.775Z,850.00
2023-04-19T09:03:00.829Z,869.00
2023-04-19T09:04:07.303Z,872.00
2023-04-19T09:05:01.976Z,879.00
2023-04-19T09:06:00.757Z,888.00
2023-04-19T09:07:00.640Z,899.00
2023-04-19T09:08:00.623Z,919.00
2023-04-19T09:09:00.611Z,931.00
2023-04-19T09:10:03.389Z,939.00
2023-04-19T09:11:00.586Z,946.00
2023-04-19T09:12:00.651Z,961.00
2023-04-19T09:13:00.584Z,971.00
2023-04-19T09:14:00.570Z,976.00
2023-04-19T09:15:02.297Z,986.00
2023-04-19T09:16:00.585Z,994.00
2023-04-19T09:17:00.529Z,1003.00
2023-04-19T09:18:00.584Z,1004.00
2023-04-19T09:19:15.256Z,1014.00
2023-04-19T09:20:01.545Z,1012.00
2023-04-19T09:21:00.540Z,1015.00
2023-04-19T09:22:00.528Z,1012.00
2023-04-19T09:23:00.552Z,913.00
2023-04-19T09:24:02.338Z,928.00
2023-04-19T09:27:01.504Z,998.00
2023-04-19T09:28:00.476Z,990.00
2023-04-19T09:29:00.470Z,985.00
2023-04-19T09:30:00.517Z,984.00
2023-04-19T09:31:08.418Z,983.00
2023-04-19T09:32:01.477Z,989.00
2023-04-19T09:33:00.491Z,984.00
2023-04-19T09:34:00.413Z,985.00
2023-04-19T09:35:00.484Z,983.00
2023-04-19T09:36:00.418Z,985.00
2023-04-19T09:37:08.992Z,989.00
2023-04-19T09:38:05.764Z,990.00
2023-04-19T09:39:01.401Z,995.00
2023-04-19T09:40:00.427Z,999.00
2023-04-19T09:41:00.360Z,1004.00
2023-04-19T09:42:00.361Z,996.00
2023-04-19T09:43:12.926Z,954.00
2023-04-19T09:44:15.594Z,918.00
2023-04-19T09:45:27.726Z,808.00
2023-04-19T09:46:01.539Z,885.00
2023-04-19T09:47:00.388Z,827.00
2023-04-19T09:48:00.426Z,825.00
2023-04-19T09:49:03.994Z,750.00
2023-04-19T09:50:02.565Z,724.00
2023-04-19T09:51:04.604Z,730.00
2023-04-19T09:52:01.313Z,743.00
2023-04-19T09:53:00.277Z,720.00
2023-04-19T09:54:00.253Z,675.00
2023-04-19T09:55:01.019Z,673.00
2023-04-19T09:56:02.681Z,668.00
2023-04-19T09:57:01.445Z,669.00
2023-04-19T09:58:00.222Z,657.00
2023-04-19T09:59:12.670Z,627.00
2023-04-19T10:00:01.220Z,616.00
2023-04-19T10:01:13.419Z,615.00
2023-04-19T10:02:01.300Z,593.00
2023-04-19T10:03:00.262Z,590.00
2023-04-19T10:04:13.775Z,593.00
2023-04-19T10:05:16.391Z,576.00
2023-04-19T10:06:10.280Z,572.00
2023-04-19T10:08:15.901Z,551.00
2023-04-19T10:09:19.028Z,537.00
2023-04-19T10:10:21.486Z,530.00
2023-04-19T10:11:18.981Z,527.00
2023-04-19T10:12:40.673Z,526.00
2023-04-19T10:13:22.020Z,524.00
2023-04-19T10:14:18.871Z,519.00
2023-04-19T10:15:18.851Z,511.00
2023-04-19T10:16:20.395Z,504.00
2023-04-19T10:17:18.793Z,503.00
2023-04-19T10:18:18.792Z,502.00
2023-04-19T10:19:18.837Z,510.00
2023-04-19T10:20:18.845Z,511.00
2023-04-19T10:21:18.896Z,513.00
2023-04-19T10:22:18.901Z,508.00
2023-04-19T10:23:18.911Z,502.00
2023-04-19T10:24:18.935Z,505.00
2023-04-19T10:25:18.955Z,501.00
2023-04-19T10:26:19.022Z,499.00
2023-04-19T10:27:19.030Z,492.00
2023-04-19T10:28:19.001Z,485.00
2023-04-19T10:29:18.962Z,488.00
2023-04-19T10:30:18.939Z,493.00
2023-04-19T10:31:18.931Z,491.00
2023-04-19T10:32:18.985Z,495.00
2023-04-19T10:33:18.831Z,492.00
2023-04-19T10:34:18.814Z,491.00
2023-04-19T10:35:18.779Z,486.00
2023-04-19T10:36:18.766Z,484.00
2023-04-19T10:37:18.717Z,486.00
2023-04-19T10:38:18.704Z,492.00
2023-04-19T10:39:18.730Z,493.00
2023-04-19T10:40:18.795Z,487.00
2023-04-19T10:41:19.161Z,473.00
2023-04-19T10:42:18.934Z,473.00
2023-04-19T10:43:18.884Z,469.00
2023-04-19T10:44:18.913Z,464.00
2023-04-19T10:45:18.871Z,458.00
2023-04-19T10:46:18.870Z,459.00
2023-04-19T10:47:18.841Z,466.00
2023-04-19T10:48:18.786Z,466.00
2023-04-19T10:49:19.073Z,466.00
2023-04-19T10:50:18.755Z,464.00
2023-04-19T10:51:18.727Z,459.00
2023-04-19T10:52:18.696Z,454.00
2023-04-19T10:53:18.708Z,456.00
2023-04-19T10:54:18.660Z,452.00
2023-04-19T10:55:18.691Z,454.00
2023-04-19T10:56:18.745Z,454.00
2023-04-19T10:57:18.767Z,457.00
2023-04-19T10:58:18.829Z,455.00
2023-04-19T10:59:19.047Z,455.00
2023-04-19T11:00:18.883Z,447.00
2023-04-19T11:01:19.004Z,457.00
2023-04-19T11:02:19.031Z,458.00
2023-04-19T11:03:19.054Z,452.00
2023-04-19T11:04:19.010Z,449.00
2023-04-19T11:05:20.342Z,447.00
2023-04-19T11:06:19.047Z,444.00
2023-04-19T11:07:19.060Z,448.00
2023-04-19T11:08:19.096Z,450.00
2023-04-19T11:09:19.155Z,450.00
2023-04-19T11:10:19.173Z,448.00
2023-04-19T11:11:19.221Z,445.00
2023-04-19T11:12:19.272Z,444.00
2023-04-19T11:13:19.277Z,449.00
2023-04-19T11:14:19.322Z,443.00
2023-04-19T11:15:19.344Z,437.00
2023-04-19T11:16:19.808Z,439.00
2023-04-19T11:17:19.303Z,433.00
2023-04-19T11:18:19.328Z,436.00
2023-04-19T11:19:19.453Z,436.00
2023-04-19T11:20:19.253Z,434.00
2023-04-19T11:21:19.215Z,433.00
2023-04-19T11:22:19.193Z,432.00
2023-04-19T11:23:19.193Z,423.00
2023-04-19T11:24:19.231Z,420.00
2023-04-19T11:25:19.336Z,414.00
2023-04-19T11:26:19.181Z,414.00
2023-04-19T11:27:19.235Z,412.00
2023-04-19T11:28:19.155Z,412.00
2023-04-19T11:29:19.162Z,414.00
2023-04-19T11:30:19.175Z,399.00
2023-04-19T11:31:19.250Z,403.00
2023-04-19T11:32:19.178Z,408.00
2023-04-19T11:33:19.142Z,408.00
2023-04-19T11:34:19.273Z,409.00
2023-04-19T11:35:19.088Z,411.00
2023-04-19T11:36:19.046Z,417.00
2023-04-19T11:37:19.011Z,420.00
2023-04-19T11:38:18.970Z,420.00
2023-04-19T11:39:18.961Z,419.00
2023-04-19T11:40:18.903Z,418.00
2023-04-19T11:41:18.879Z,417.00
2023-04-19T11:42:18.844Z,415.00
2023-04-19T11:43:18.812Z,415.00
2023-04-19T11:44:18.990Z,418.00
2023-04-19T11:45:28.751Z,421.00
2023-04-19T11:46:19.782Z,422.00
2023-04-19T11:47:18.676Z,432.00
2023-04-19T11:48:18.631Z,432.00
2023-04-19T11:49:18.592Z,433.00
2023-04-19T11:50:18.551Z,436.00
2023-04-19T11:51:18.512Z,441.00
2023-04-19T11:52:18.496Z,446.00
2023-04-19T11:53:18.446Z,450.00
2023-04-19T11:54:18.650Z,451.00
2023-04-19T11:55:18.411Z,458.00
2023-04-19T11:56:18.357Z,465.00
2023-04-19T11:57:18.326Z,475.00
2023-04-19T11:58:18.292Z,478.00
2023-04-19T11:59:18.253Z,486.00
2023-04-19T12:00:18.220Z,484.00
2023-04-19T12:01:18.187Z,485.00
2023-04-19T12:02:18.364Z,486.00
2023-04-19T12:03:18.424Z,487.00
2023-04-19T12:04:18.499Z,485.00
2023-04-19T12:05:18.364Z,485.00
2023-04-19T12:06:18.002Z,483.00
2023-04-19T12:07:17.977Z,482.00
2023-04-19T12:08:17.936Z,483.00
2023-04-19T12:09:17.908Z,487.00
2023-04-19T12:10:17.869Z,485.00
2023-04-19T12:11:17.836Z,486.00
2023-04-19T12:12:17.805Z,484.00
2023-04-19T12:13:17.830Z,485.00
2023-04-19T12:14:17.901Z,483.00
2023-04-19T12:15:17.774Z,481.00
2023-04-19T12:16:17.931Z,480.00
2023-04-19T12:17:17.732Z,483.00
2023-04-19T12:18:17.748Z,481.00
2023-04-19T12:19:18.096Z,478.00
2023-04-19T12:20:17.677Z,476.00
2023-04-19T12:21:17.648Z,477.00
2023-04-19T12:22:17.647Z,474.00
2023-04-19T12:23:17.644Z,471.00
2023-04-19T12:24:17.637Z,469.00
2023-04-19T12:25:17.626Z,464.00
2023-04-19T12:26:17.580Z,464.00
2023-04-19T12:27:17.581Z,466.00
2023-04-19T12:28:17.551Z,464.00
2023-04-19T12:29:17.720Z,461.00
2023-04-19T12:30:17.518Z,465.00
2023-04-19T12:31:17.521Z,596.00
2023-04-19T12:32:17.637Z,595.00
2023-04-19T12:33:17.480Z,541.00
2023-04-19T12:34:17.543Z,557.00
2023-04-19T12:35:17.439Z,564.00
2023-04-19T12:36:17.436Z,657.00
2023-04-19T12:37:17.337Z,680.00